Time;durP1;ratioP1;P1;durP2;ratioP2;P2;SDS_P1;SDS_P2;PMS_P1;PMS_P2;Temp;Humidity;BMP_temperature;BMP_pressure;BME280_temperature;BME280_humidity;BME280_pressure;Samples;Min_cycle;Max_cycle;Signal;HPM_P1;HPM_P2
2023/12/06 00:00:57;;;;;;;29.65;16.25;;;2.20;99.90;;;;;;5076185;28;20044;-87
2023/12/06 00:03:23;;;;;;;25.08;14.80;;;2.20;99.90;;;;;;5071660;28;20056;-87
2023/12/06 00:07:08;;;;;;;25.05;16.33;;;2.20;99.90;;;;;;5094180;28;20079;-87
2023/12/06 00:09:33;;;;;;;25.40;13.50;;;2.20;99.90;;;;;;5076421;28;20047;-87
2023/12/06 00:11:59;;;;;;;23.02;13.82;;;2.20;99.90;;;;;;5098995;22;20684;-86
2023/12/06 00:14:36;;;;;;;29.25;16.45;;;2.30;99.90;;;;;;5054752;28;20052;-87
2023/12/06 00:17:07;;;;;;;29.38;15.05;;;2.20;99.90;;;;;;5055800;28;20456;-87
2023/12/06 00:19:39;;;;;;;28.05;16.52;;;2.20;99.90;;;;;;5056069;28;20052;-87
2023/12/06 00:22:08;;;;;;;24.58;15.70;;;2.20;99.90;;;;;;5055915;28;20048;-87
2023/12/06 00:24:33;;;;;;;28.83;14.07;;;2.20;99.90;;;;;;5055307;28;20127;-87
2023/12/06 00:27:11;;;;;;;27.13;15.73;;;2.30;99.90;;;;;;5055852;28;20219;-87
2023/12/06 00:29:40;;;;;;;24.90;13.35;;;2.20;99.90;;;;;;5055946;28;20044;-87
2023/12/06 00:32:11;;;;;;;29.00;15.57;;;2.30;99.90;;;;;;5055736;28;20072;-87
2023/12/06 00:34:43;;;;;;;24.38;14.93;;;2.30;99.90;;;;;;5055577;28;20084;-87
2023/12/06 00:37:11;;;;;;;25.85;15.15;;;2.20;99.90;;;;;;5055455;28;20555;-86
2023/12/06 00:39:43;;;;;;;26.42;15.52;;;2.30;99.90;;;;;;5055537;28;20052;-87
2023/12/06 00:42:12;;;;;;;28.20;15.18;;;2.30;99.90;;;;;;5055819;28;20072;-87
2023/12/06 00:44:40;;;;;;;24.75;14.95;;;2.30;99.90;;;;;;5055451;28;20048;-86
2023/12/06 00:47:09;;;;;;;24.25;14.57;;;2.30;99.90;;;;;;5055707;28;20472;-85
2023/12/06 00:49:46;;;;;;;24.55;13.40;;;2.30;99.90;;;;;;5055479;28;20094;-85
2023/12/06 00:52:12;;;;;;;28.67;15.27;;;2.40;99.90;;;;;;5055525;28;20052;-85
2023/12/06 00:55:03;;;;;;;25.85;16.05;;;2.30;99.90;;;;;;5055522;28;20063;-85
2023/12/06 00:57:32;;;;;;;22.65;13.57;;;2.30;99.90;;;;;;5055610;28;20041;-85
2023/12/06 01:00:18;;;;;;;26.38;13.93;;;2.30;99.90;;;;;;5055312;28;20165;-85
2023/12/06 01:02:44;;;;;;;27.98;12.70;;;2.40;99.90;;;;;;5055546;28;20063;-85
2023/12/06 01:05:10;;;;;;;24.45;13.43;;;2.40;99.90;;;;;;5055034;28;20391;-85
2023/12/06 01:07:36;;;;;;;26.80;13.98;;;2.40;99.90;;;;;;5058778;22;20053;-85
2023/12/06 01:10:02;;;;;;;22.55;13.95;;;2.40;99.90;;;;;;5051812;28;20091;-85
2023/12/06 01:12:27;;;;;;;20.60;13.20;;;2.40;99.90;;;;;;5051810;28;20106;-85
2023/12/06 01:14:53;;;;;;;23.42;13.02;;;2.40;99.90;;;;;;5051639;28;20080;-85
2023/12/06 01:17:19;;;;;;;20.80;12.48;;;2.50;99.90;;;;;;5051795;28;20033;-85
2023/12/06 01:19:44;;;;;;;22.20;12.57;;;2.40;99.90;;;;;;5052017;28;20087;-85
2023/12/06 01:22:10;;;;;;;24.92;13.07;;;2.50;99.90;;;;;;5051743;28;20127;-85
2023/12/06 01:27:16;;;;;;;23.05;12.60;;;2.50;99.90;;;;;;5069749;28;20083;-85
2023/12/06 01:29:44;;;;;;;24.73;13.73;;;2.50;99.90;;;;;;5071710;28;20106;-85
2023/12/06 01:32:19;;;;;;;25.98;14.63;;;2.40;99.90;;;;;;5071705;28;20048;-85
2023/12/06 01:35:07;;;;;;;24.60;14.88;;;2.40;99.90;;;;;;5071963;28;20147;-85
2023/12/06 01:37:45;;;;;;;23.50;13.60;;;2.40;99.90;;;;;;5071878;28;20491;-85
2023/12/06 01:40:17;;;;;;;24.35;13.70;;;2.40;99.90;;;;;;5071578;28;20387;-85
2023/12/06 01:42:45;;;;;;;25.50;14.23;;;2.40;99.90;;;;;;5071486;28;20080;-85
2023/12/06 01:45:14;;;;;;;25.95;15.05;;;2.40;99.90;;;;;;5071408;28;20299;-85
2023/12/06 01:47:41;;;;;;;27.17;15.00;;;2.40;99.90;;;;;;5071814;28;20529;-85
2023/12/06 01:50:16;;;;;;;26.08;14.48;;;2.40;99.90;;;;;;5073560;28;20557;-85
2023/12/06 01:52:45;;;;;;;22.90;14.15;;;2.40;99.90;;;;;;5075156;28;20131;-85
2023/12/06 01:55:31;;;;;;;26.90;14.63;;;2.40;99.90;;;;;;5075097;28;20365;-85
2023/12/06 01:58:16;;;;;;;26.48;13.52;;;2.40;99.90;;;;;;5075312;28;20055;-85
2023/12/06 02:00:48;;;;;;;23.75;13.35;;;2.40;99.90;;;;;;5075299;28;20062;-85
2023/12/06 02:03:20;;;;;;;30.43;14.93;;;2.40;99.90;;;;;;5075020;28;20048;-85
2023/12/06 02:05:46;;;;;;;24.67;14.80;;;2.40;99.90;;;;;;5075199;28;20369;-85
2023/12/06 02:10:46;;;;;;;27.00;13.93;;;2.50;99.90;;;;;;5079282;22;20099;-86
2023/12/06 02:13:17;;;;;;;25.55;14.82;;;2.40;99.90;;;;;;5057779;28;20052;-85
2023/12/06 02:18:18;;;;;;;24.92;13.75;;;2.40;99.90;;;;;;5033277;26;20520;-86
2023/12/06 02:20:45;;;;;;;30.77;14.85;;;2.50;99.90;;;;;;5018339;28;20053;-86
2023/12/06 02:23:19;;;;;;;26.10;15.10;;;2.50;99.90;;;;;;5017868;28;20077;-86
2023/12/06 02:25:48;;;;;;;25.08;13.52;;;2.50;99.90;;;;;;5018134;28;20124;-86
2023/12/06 02:28:19;;;;;;;24.52;13.63;;;2.40;99.90;;;;;;5018205;28;20037;-86
2023/12/06 02:30:51;;;;;;;26.90;15.10;;;2.50;99.90;;;;;;5018073;28;20088;-86
2023/12/06 02:33:23;;;;;;;24.65;14.38;;;2.40;99.90;;;;;;5018167;28;20077;-86
2023/12/06 02:36:12;;;;;;;29.88;16.00;;;2.50;99.90;;;;;;5017958;28;20041;-86
2023/12/06 02:38:40;;;;;;;26.45;14.82;;;2.50;99.90;;;;;;5018120;28;20041;-86
2023/12/06 02:41:19;;;;;;;23.73;15.00;;;2.50;99.90;;;;;;5018118;28;20088;-86
2023/12/06 02:44:04;;;;;;;28.52;14.05;;;2.50;99.90;;;;;;5111058;22;20072;-86
2023/12/06 02:47:05;;;;;;;25.88;15.00;;;2.50;99.90;;;;;;5063008;22;20057;-85
2023/12/06 02:49:49;;;;;;;23.63;14.88;;;2.50;99.90;;;;;;5015359;28;20053;-86
2023/12/06 02:52:21;;;;;;;25.10;14.82;;;2.50;99.90;;;;;;5017660;28;20080;-86
2023/12/06 02:54:50;;;;;;;24.92;13.77;;;2.50;99.90;;;;;;5017751;28;20049;-86
2023/12/06 02:57:46;;;;;;;22.38;13.52;;;2.50;99.90;;;;;;5017883;28;20095;-86
2023/12/06 03:00:27;;;;;;;21.48;12.18;;;2.50;99.90;;;;;;5017141;28;20049;-86
2023/12/06 03:02:53;;;;;;;25.90;13.38;;;2.60;99.90;;;;;;5016801;28;20080;-86
2023/12/06 03:05:19;;;;;;;25.40;12.93;;;2.50;99.90;;;;;;5017602;28;20081;-86
2023/12/06 03:07:54;;;;;;;26.05;14.40;;;2.60;99.90;;;;;;5017217;28;20041;-86
2023/12/06 03:10:35;;;;;;;25.08;13.95;;;2.50;99.90;;;;;;5017302;28;20053;-86
2023/12/06 03:13:04;;;;;;;19.75;12.13;;;2.50;99.90;;;;;;5017056;28;20041;-86
2023/12/06 03:15:35;;;;;;;21.10;12.32;;;2.60;99.90;;;;;;5017180;28;20049;-86
2023/12/06 03:18:23;;;;;;;22.08;12.65;;;2.60;99.90;;;;;;5017079;28;20060;-86
2023/12/06 03:21:04;;;;;;;25.00;14.13;;;2.60;99.90;;;;;;5017725;28;20064;-86
2023/12/06 03:23:51;;;;;;;28.45;14.60;;;2.60;99.90;;;;;;5016837;28;20124;-86
2023/12/06 03:26:39;;;;;;;24.23;13.93;;;2.60;99.90;;;;;;5017663;28;20049;-86
2023/12/06 03:29:23;;;;;;;25.25;14.68;;;2.50;99.90;;;;;;5017188;28;20076;-86
2023/12/06 03:31:55;;;;;;;26.83;13.70;;;2.60;99.90;;;;;;5016933;28;20077;-86
2023/12/06 03:34:55;;;;;;;20.38;12.38;;;2.50;99.90;;;;;;5032638;23;20053;-86
2023/12/06 03:37:22;;;;;;;24.08;13.40;;;2.50;99.90;;;;;;5056317;28;20044;-86
2023/12/06 03:39:51;;;;;;;24.90;14.15;;;2.50;99.90;;;;;;5056897;28;20040;-86
2023/12/06 03:43:25;;;;;;;25.60;13.77;;;2.50;99.90;;;;;;5107623;22;20512;-86
2023/12/06 03:46:24;;;;;;;29.30;14.00;;;2.50;99.90;;;;;;5053385;28;20147;-86
2023/12/06 03:51:38;;;;;;;27.27;13.13;;;2.50;99.90;;;;;;5012698;28;20061;-86
2023/12/06 03:55:18;;;;;;;22.60;12.80;;;2.60;99.90;;;;;;5013396;28;20064;-86
2023/12/06 03:58:07;;;;;;;21.85;11.75;;;2.60;99.90;;;;;;5080558;22;20072;-86
2023/12/06 04:01:44;;;;;;;20.65;11.68;;;2.60;99.90;;;;;;5094225;28;20048;-86
2023/12/06 04:04:12;;;;;;;17.17;10.82;;;2.60;99.90;;;;;;5096263;28;20406;-86
2023/12/06 04:07:26;;;;;;;15.30;9.32;;;2.60;99.90;;;;;;5114470;28;20035;-85
2023/12/06 04:10:01;;;;;;;14.93;7.85;;;2.70;99.90;;;;;;5260207;22;20068;-86
2023/12/06 04:16:45;;;;;;;17.42;7.70;;;2.90;99.90;;;;;;5072632;22;20102;-86
2023/12/06 04:19:28;;;;;;;18.75;8.00;;;2.90;99.90;;;;;;5056123;28;20044;-86
2023/12/06 04:22:17;;;;;;;15.23;8.05;;;3.00;99.90;;;;;;5055508;28;20040;-86
2023/12/06 04:25:29;;;;;;;13.07;6.85;;;3.00;99.90;;;;;;5055737;28;20048;-86
2023/12/06 04:28:41;;;;;;;9.52;6.13;;;3.00;99.90;;;;;;5073522;28;20047;-86
2023/12/06 04:31:10;;;;;;;11.43;7.05;;;3.00;99.90;;;;;;5056112;28;20060;-86
2023/12/06 04:33:54;;;;;;;12.55;6.95;;;3.00;99.90;;;;;;5055808;28;20040;-86
2023/12/06 04:36:42;;;;;;;10.90;7.20;;;3.10;99.90;;;;;;5055428;28;20507;-86
2023/12/06 04:39:59;;;;;;;;;;;;;;;;;;;;;
2023/12/06 04:42:58;;;;;;;12.50;6.53;;;3.10;99.90;;;;;;5010759;28;20057;-86
2023/12/06 04:45:58;;;;;;;18.10;8.00;;;3.10;99.90;;;;;;5055447;28;20041;-87
2023/12/06 04:48:41;;;;;;;14.57;8.25;;;3.20;99.90;;;;;;5055666;28;20049;-87
2023/12/06 04:51:22;;;;;;;13.90;7.85;;;3.10;99.90;;;;;;5055610;28;20044;-86
2023/12/06 04:57:56;;;;;;;12.75;6.43;;;3.20;99.90;;;;;;5031675;28;20046;-87
2023/12/06 05:01:02;;;;;;;16.52;7.57;;;3.20;99.90;;;;;;5015245;28;20052;-87
2023/12/06 05:07:12;;;;;;;13.02;7.72;;;3.20;99.90;;;;;;5303059;22;20056;-88
2023/12/06 05:09:49;;;;;;;14.50;7.77;;;3.30;99.90;;;;;;5090725;28;20045;-88
2023/12/06 05:12:59;;;;;;;16.00;8.40;;;3.30;99.90;;;;;;5074304;28;20076;-88
2023/12/06 05:15:37;;;;;;;17.33;8.88;;;3.30;99.90;;;;;;5074329;28;20094;-88
2023/12/06 05:20:50;;;;;;;14.38;8.55;;;3.30;99.90;;;;;;5073060;28;20052;-88
2023/12/06 05:23:18;;;;;;;18.98;9.02;;;3.30;99.90;;;;;;5071944;28;20052;-87
2023/12/06 05:25:45;;;;;;;24.50;11.05;;;3.30;99.90;;;;;;5075483;28;20047;-87
2023/12/06 05:29:25;;;;;;;13.00;6.68;;;3.30;99.90;;;;;;5032401;28;20082;-88
2023/12/06 05:33:01;;;;;;;;;;;;;;;;;;;;;
2023/12/06 05:36:00;;;;;;;16.17;9.05;;;3.40;99.90;;;;;;5042555;28;20340;-87
2023/12/06 05:39:05;;;;;;;14.77;8.43;;;3.40;99.90;;;;;;5076732;28;20036;-88
2023/12/06 05:42:18;;;;;;;;;;;;;;;;;;;;;
2023/12/06 05:45:54;;;;;;;12.50;7.18;;;3.40;99.90;;;;;;4996414;28;20094;-88
2023/12/06 05:49:03;;;;;;;18.23;9.82;;;3.40;99.90;;;;;;4980469;28;20085;-88
2023/12/06 05:51:49;;;;;;;;;;;3.50;99.90;;;;;;4939613;29;20591;-88
2023/12/06 06:03:37;;;;;;;23.48;9.02;;;3.40;99.90;;;;;;5096541;28;20032;-88
2023/12/06 06:06:06;;;;;;;12.55;6.78;;;3.40;99.90;;;;;;5079525;28;20165;-88
2023/12/06 06:08:53;;;;;;;12.30;7.90;;;3.50;99.90;;;;;;5079246;28;20047;-87
2023/12/06 06:14:42;;;;;;;;;;;;;;;;;;;;;
2023/12/06 06:17:58;;;;;;;12.50;7.07;;;3.50;99.90;;;;;;4974413;28;20057;-87
2023/12/06 06:20:58;;;;;;;13.68;8.15;;;3.50;99.90;;;;;;4964719;28;20555;-87
2023/12/06 06:23:30;;;;;;;15.13;7.13;;;3.50;99.90;;;;;;4981204;28;20050;-88
2023/12/06 06:25:55;;;;;;;13.10;8.27;;;3.60;99.90;;;;;;4996222;28;20137;-90
2023/12/06 06:28:30;;;;;;;12.43;8.10;;;3.60;99.90;;;;;;5048554;22;20136;-90
2023/12/06 06:30:57;;;;;;;16.95;8.10;;;3.50;99.90;;;;;;5054707;28;20048;-89
2023/12/06 06:33:33;;;;;;;14.75;8.98;;;3.60;99.90;;;;;;5077899;22;20408;-89
2023/12/06 06:35:58;;;;;;;12.88;7.18;;;3.60;99.90;;;;;;5075036;28;20086;-90
2023/12/06 06:38:24;;;;;;;13.50;7.53;;;3.60;99.90;;;;;;5074578;28;20080;-89
2023/12/06 06:40:59;;;;;;;16.88;9.48;;;3.60;99.90;;;;;;5074223;28;20059;-90
2023/12/06 06:43:25;;;;;;;14.57;8.00;;;3.60;99.90;;;;;;5064484;22;20057;-90
2023/12/06 06:45:52;;;;;;;13.27;7.95;;;3.60;99.90;;;;;;5054402;28;20067;-89
2023/12/06 06:48:31;;;;;;;13.88;8.32;;;3.60;99.90;;;;;;5054300;28;20045;-89
2023/12/06 06:50:56;;;;;;;13.85;5.82;;;3.60;99.90;;;;;;5054282;28;20052;-89
2023/12/06 06:53:32;;;;;;;15.95;7.32;;;3.60;99.90;;;;;;5054257;28;20041;-89
2023/12/06 06:55:58;;;;;;;18.20;9.18;;;3.70;99.90;;;;;;5054255;28;20049;-89
2023/12/06 06:58:30;;;;;;;14.35;7.95;;;3.70;99.90;;;;;;5077357;23;20113;-89
2023/12/06 07:01:01;;;;;;;13.82;8.60;;;3.60;99.90;;;;;;5084759;22;20120;-89
2023/12/06 07:03:48;;;;;;;15.68;9.15;;;3.60;99.90;;;;;;5053627;28;20041;-89
2023/12/06 07:06:35;;;;;;;16.58;8.75;;;3.60;99.90;;;;;;5054073;28;20094;-89
2023/12/06 07:09:00;;;;;;;22.02;9.07;;;3.60;99.90;;;;;;5053614;28;20090;-89
2023/12/06 07:11:26;;;;;;;15.05;7.38;;;3.60;99.90;;;;;;5053841;28;20033;-89
2023/12/06 07:13:52;;;;;;;13.43;7.28;;;3.60;99.90;;;;;;5053704;28;20103;-89
2023/12/06 07:16:33;;;;;;;13.65;7.70;;;3.70;99.90;;;;;;5053906;28;20089;-88
2023/12/06 07:19:19;;;;;;;14.15;7.97;;;3.70;99.90;;;;;;5072292;22;20064;-90
2023/12/06 07:21:45;;;;;;;16.25;8.23;;;3.70;99.90;;;;;;5073570;28;20427;-89
2023/12/06 07:24:25;;;;;;;13.10;7.57;;;3.70;99.90;;;;;;5073431;28;20052;-90
2023/12/06 07:26:51;;;;;;;15.90;9.77;;;3.70;99.90;;;;;;5073822;28;20052;-90
2023/12/06 07:29:32;;;;;;;18.67;9.50;;;3.70;99.90;;;;;;5073507;28;20040;-88
2023/12/06 07:32:07;;;;;;;15.30;9.40;;;3.60;99.90;;;;;;5066210;28;20488;-89
2023/12/06 07:34:40;;;;;;;16.35;9.00;;;3.70;99.90;;;;;;5054489;28;20484;-89
2023/12/06 07:37:06;;;;;;;14.40;9.13;;;3.60;99.90;;;;;;5052932;28;20044;-89
2023/12/06 07:39:32;;;;;;;13.38;8.55;;;3.60;99.90;;;;;;5052714;28;20052;-89
2023/12/06 07:42:14;;;;;;;17.83;10.02;;;3.70;99.90;;;;;;5052982;28;20052;-89
2023/12/06 07:44:40;;;;;;;13.25;8.15;;;3.70;99.90;;;;;;5052697;28;20049;-89
2023/12/06 07:47:21;;;;;;;16.92;8.65;;;3.70;99.90;;;;;;5052392;28;20048;-89
2023/12/06 07:49:50;;;;;;;13.77;8.75;;;3.70;99.90;;;;;;5052881;28;20048;-89
2023/12/06 07:52:34;;;;;;;19.17;10.07;;;3.70;99.90;;;;;;5052723;28;20044;-90
2023/12/06 07:55:06;;;;;;;13.88;6.72;;;3.70;99.90;;;;;;5052572;28;20045;-90
2023/12/06 07:57:38;;;;;;;16.67;10.93;;;3.70;99.90;;;;;;5052651;28;20045;-86
2023/12/06 08:00:08;;;;;;;16.60;8.77;;;3.70;99.90;;;;;;5052623;28;20048;-88
2023/12/06 08:02:39;;;;;;;15.80;9.82;;;3.70;99.90;;;;;;5052400;28;20056;-86
2023/12/06 08:05:10;;;;;;;13.82;9.20;;;3.70;99.90;;;;;;5052535;28;20083;-87
2023/12/06 08:07:39;;;;;;;16.63;9.23;;;3.70;99.90;;;;;;5052876;28;20049;-87
2023/12/06 08:10:22;;;;;;;16.02;8.57;;;3.70;99.90;;;;;;5052597;28;20044;-87
2023/12/06 08:13:11;;;;;;;16.58;9.23;;;3.60;99.90;;;;;;5052651;28;20056;-88
2023/12/06 08:15:40;;;;;;;14.75;8.85;;;3.70;99.90;;;;;;5052342;28;20094;-86
2023/12/06 08:18:07;;;;;;;16.35;9.55;;;3.70;99.90;;;;;;5051189;28;20060;-89
2023/12/06 08:20:42;;;;;;;13.18;8.32;;;3.70;99.90;;;;;;5052701;28;20085;-90
2023/12/06 08:23:11;;;;;;;18.73;10.13;;;3.70;99.90;;;;;;5052150;28;20049;-90
2023/12/06 08:25:40;;;;;;;15.80;8.48;;;3.60;99.90;;;;;;5052543;28;20127;-90
2023/12/06 08:28:06;;;;;;;14.32;9.18;;;3.70;99.90;;;;;;5052451;28;20128;-86
2023/12/06 08:30:37;;;;;;;13.43;7.32;;;3.70;99.90;;;;;;5052520;28;20104;-86
2023/12/06 08:33:13;;;;;;;16.67;7.70;;;3.80;99.90;;;;;;5051777;28;20443;-89
2023/12/06 08:35:41;;;;;;;14.07;7.93;;;3.80;99.90;;;;;;5052169;28;20113;-89
2023/12/06 08:38:07;;;;;;;13.45;7.70;;;3.80;99.90;;;;;;5052208;28;20463;-87
2023/12/06 08:40:36;;;;;;;13.95;7.22;;;3.80;99.90;;;;;;5075648;23;20516;-88
2023/12/06 08:43:15;;;;;;;12.57;7.60;;;3.80;99.90;;;;;;5035803;28;20559;-90
2023/12/06 08:45:43;;;;;;;11.77;7.43;;;3.80;99.90;;;;;;5035377;28;20510;-89
2023/12/06 08:48:12;;;;;;;14.50;7.63;;;3.80;99.90;;;;;;5035507;28;20059;-88
2023/12/06 08:50:43;;;;;;;10.50;6.00;;;3.80;99.90;;;;;;5053426;28;20056;-93
2023/12/06 08:53:18;;;;;;;15.40;7.05;;;3.80;99.90;;;;;;5035743;28;20037;-90
2023/12/06 08:55:44;;;;;;;10.73;6.00;;;3.80;99.90;;;;;;5035503;28;20052;-88
2023/12/06 08:58:12;;;;;;;11.48;6.32;;;3.80;99.90;;;;;;5035477;28;20037;-89
2023/12/06 09:00:38;;;;;;;14.77;6.80;;;3.80;99.90;;;;;;5038573;28;20052;-89
2023/12/06 09:03:18;;;;;;;11.30;6.15;;;3.80;99.90;;;;;;5039302;28;20048;-88
2023/12/06 09:05:44;;;;;;;12.45;6.90;;;3.80;99.90;;;;;;5040242;28;20488;-88
2023/12/06 09:08:25;;;;;;;13.13;7.05;;;3.70;99.90;;;;;;5039455;28;20052;-89
2023/12/06 09:11:00;;;;;;;14.82;7.22;;;3.70;99.90;;;;;;5039538;28;20048;-88
2023/12/06 09:13:44;;;;;;;11.32;6.75;;;3.70;99.90;;;;;;5039394;28;20049;-88
2023/12/06 09:16:14;;;;;;;14.43;7.78;;;3.70;99.90;;;;;;5039182;28;20049;-88
2023/12/06 09:18:42;;;;;;;11.20;6.47;;;3.70;99.90;;;;;;5039342;28;20094;-88
2023/12/06 09:21:14;;;;;;;12.73;7.00;;;3.70;99.90;;;;;;5039357;28;20165;-88
2023/12/06 09:23:49;;;;;;;15.00;7.13;;;3.80;99.90;;;;;;5039091;28;20040;-89
2023/12/06 09:26:15;;;;;;;14.35;7.93;;;3.80;99.90;;;;;;5039397;28;20476;-88
2023/12/06 09:28:41;;;;;;;12.07;6.97;;;3.80;99.90;;;;;;5039598;28;20048;-88
2023/12/06 09:31:22;;;;;;;12.40;8.57;;;3.70;99.90;;;;;;5059801;22;20573;-88
2023/12/06 09:39:15;;;;;;;13.85;8.38;;;3.80;99.90;;;;;;5015412;28;20061;-88
2023/12/06 09:41:47;;;;;;;14.52;7.90;;;3.90;99.90;;;;;;5017264;28;20050;-88
2023/12/06 09:44:25;;;;;;;12.75;8.27;;;3.80;99.90;;;;;;5000181;28;20048;-88
2023/12/06 09:46:59;;;;;;;13.70;7.78;;;3.80;99.90;;;;;;5000229;28;20096;-88
2023/12/06 09:49:48;;;;;;;13.48;8.48;;;3.80;99.90;;;;;;5015812;28;20042;-88
2023/12/06 09:52:23;;;;;;;13.25;8.50;;;3.80;99.90;;;;;;4999849;28;20128;-88
2023/12/06 09:54:50;;;;;;;11.40;8.15;;;3.70;99.90;;;;;;4999658;28;20474;-89
2023/12/06 09:57:16;;;;;;;15.68;8.15;;;3.80;99.90;;;;;;4999638;28;20065;-88
2023/12/06 09:59:48;;;;;;;13.10;8.30;;;3.80;99.90;;;;;;5015900;28;20033;-88
2023/12/06 10:02:14;;;;;;;14.38;8.27;;;3.80;99.90;;;;;;4999030;28;20046;-88
2023/12/06 10:04:39;;;;;;;16.00;8.02;;;3.80;99.90;;;;;;4999374;28;20052;-88
2023/12/06 10:07:09;;;;;;;15.63;8.30;;;3.80;99.90;;;;;;4999511;28;20042;-87
2023/12/06 10:10:05;;;;;;;15.95;8.57;;;3.80;99.90;;;;;;4998531;28;20056;-88
2023/12/06 10:12:31;;;;;;;14.95;9.25;;;3.80;99.90;;;;;;4999152;28;20069;-88
2023/12/06 10:15:00;;;;;;;16.38;9.13;;;3.80;99.90;;;;;;4999515;28;20073;-88
2023/12/06 10:17:26;;;;;;;15.07;9.52;;;3.80;99.90;;;;;;4999211;28;20045;-88
2023/12/06 10:19:51;;;;;;;14.38;8.50;;;3.70;99.90;;;;;;5015458;28;20045;-88
2023/12/06 10:22:33;;;;;;;16.55;9.10;;;3.70;99.90;;;;;;4999300;28;20042;-88
2023/12/06 10:25:05;;;;;;;14.55;8.63;;;3.70;99.90;;;;;;5000721;28;20050;-87
2023/12/06 10:27:49;;;;;;;14.68;8.70;;;3.80;99.90;;;;;;5001570;28;20034;-87
2023/12/06 10:34:12;;;;;;;14.10;7.10;;;3.90;99.90;;;;;;4960518;28;20061;-88
2023/12/06 10:36:48;;;;;;;13.43;6.85;;;4.00;99.90;;;;;;4995009;28;20058;-87
2023/12/06 10:39:20;;;;;;;12.52;6.60;;;4.00;99.90;;;;;;4995794;28;20050;-87
2023/12/06 10:42:14;;;;;;;10.95;7.35;;;4.00;99.90;;;;;;4996063;28;20060;-87
2023/12/06 10:44:47;;;;;;;11.57;7.30;;;4.00;99.90;;;;;;4994666;28;20050;-87
2023/12/06 10:47:26;;;;;;;13.40;8.40;;;4.00;99.90;;;;;;4978865;28;20050;-87
2023/12/06 10:49:54;;;;;;;13.10;7.60;;;4.00;99.90;;;;;;4994999;28;20050;-87
2023/12/06 10:52:23;;;;;;;13.02;6.25;;;4.00;99.90;;;;;;4994347;28;20049;-87
2023/12/06 10:55:12;;;;;;;9.05;5.43;;;4.00;99.90;;;;;;4994534;28;20061;-87
2023/12/06 11:01:13;;;;;;;11.65;5.47;;;4.10;99.90;;;;;;4939465;29;20078;-88
2023/12/06 11:04:03;;;;;;;13.15;5.28;;;4.10;99.90;;;;;;4938734;29;20051;-88
2023/12/06 11:07:16;;;;;;;9.20;5.35;;;4.10;99.90;;;;;;5016579;22;20049;-88
2023/12/06 11:13:43;;;;;;;8.57;4.07;;;4.00;99.90;;;;;;5092212;28;20464;-88
2023/12/06 11:19:52;;;;;;;15.07;4.38;;;4.00;99.90;;;;;;5010674;28;20052;-88
2023/12/06 11:25:26;;;;;;;10.25;4.50;;;4.10;99.90;;;;;;5076786;28;20044;-88
2023/12/06 11:27:55;;;;;;;8.07;4.32;;;4.10;99.90;;;;;;5076833;28;20040;-88
2023/12/06 11:33:35;;;;;;;7.90;5.45;;;4.10;99.90;;;;;;5117283;23;20426;-88
2023/12/06 11:36:25;;;;;;;12.85;5.95;;;4.10;99.90;;;;;;5098202;28;20047;-88
2023/12/06 11:38:54;;;;;;;10.10;5.95;;;4.10;99.90;;;;;;5098374;28;20120;-87
2023/12/06 11:41:27;;;;;;;11.27;6.55;;;4.10;99.90;;;;;;5092624;28;20048;-88
2023/12/06 11:43:53;;;;;;;10.70;5.72;;;4.10;99.90;;;;;;5096824;28;20478;-87
2023/12/06 11:46:36;;;;;;;11.02;5.82;;;4.10;99.90;;;;;;5096630;28;20048;-88
2023/12/06 11:49:13;;;;;;;12.80;6.85;;;4.10;99.90;;;;;;5096955;28;20040;-88
2023/12/06 11:52:20;;;;;;;15.57;7.68;;;4.20;99.90;;;;;;5096736;28;20173;-88
2023/12/06 11:55:04;;;;;;;10.55;6.15;;;4.10;99.90;;;;;;4995944;28;20049;-88
2023/12/06 11:57:49;;;;;;;9.88;5.78;;;4.10;99.90;;;;;;4996335;28;20058;-88
2023/12/06 12:00:15;;;;;;;9.95;5.20;;;4.20;99.90;;;;;;4995792;28;20037;-88
2023/12/06 12:02:41;;;;;;;10.50;5.10;;;4.20;99.90;;;;;;4995789;28;20129;-88
2023/12/06 12:05:25;;;;;;;7.18;4.60;;;4.10;99.90;;;;;;4995704;28;20121;-88
2023/12/06 12:07:57;;;;;;;8.40;4.68;;;4.10;99.90;;;;;;4997058;28;20118;-88
2023/12/06 12:10:36;;;;;;;10.68;5.25;;;4.10;99.90;;;;;;5025342;28;20084;-88
2023/12/06 12:13:38;;;;;;;11.30;5.10;;;4.00;99.90;;;;;;5096515;28;20051;-87
2023/12/06 12:16:07;;;;;;;9.35;5.50;;;4.10;99.90;;;;;;5113552;28;20076;-88
2023/12/06 12:18:56;;;;;;;9.15;5.75;;;4.00;99.90;;;;;;5096068;28;20051;-88
2023/12/06 12:21:41;;;;;;;10.80;5.57;;;4.10;99.90;;;;;;5096210;28;20498;-88
2023/12/06 12:24:24;;;;;;;10.00;5.10;;;4.10;99.90;;;;;;5114679;28;20123;-88
2023/12/06 12:27:11;;;;;;;;;;;4.10;99.90;;;;;;5096330;28;20410;-89
2023/12/06 12:29:42;;;;;;;5.63;3.88;;;4.20;99.90;;;;;;5095860;28;19920;-88
2023/12/06 12:32:52;;;;;;;6.18;4.25;;;4.20;99.90;;;;;;5105226;28;20055;-88
2023/12/06 12:35:24;;;;;;;8.43;4.72;;;4.20;99.90;;;;;;5112813;28;20055;-88
2023/12/06 12:37:53;;;;;;;7.90;4.32;;;4.10;99.90;;;;;;5112823;28;20042;-88
2023/12/06 12:40:34;;;;;;;7.10;4.45;;;4.20;99.90;;;;;;5112251;28;20502;-88
2023/12/06 12:43:23;;;;;;;10.07;4.95;;;4.10;99.90;;;;;;5136803;22;20039;-88
2023/12/06 12:45:55;;;;;;;5.72;3.80;;;4.10;99.90;;;;;;5042740;28;20068;-88
2023/12/06 12:48:21;;;;;;;11.27;4.95;;;4.10;99.90;;;;;;5051996;28;20053;-88
2023/12/06 12:50:50;;;;;;;8.27;4.18;;;4.20;99.90;;;;;;5051911;28;20045;-88
2023/12/06 12:53:15;;;;;;;6.85;3.88;;;4.20;99.90;;;;;;5051903;28;20496;-88
2023/12/06 12:56:02;;;;;;;6.47;3.95;;;4.30;99.90;;;;;;5051911;28;20045;-88
2023/12/06 12:58:46;;;;;;;8.05;4.50;;;4.30;99.90;;;;;;5051983;28;20041;-88
2023/12/06 13:01:18;;;;;;;8.65;4.20;;;4.30;99.90;;;;;;5051930;28;20044;-88
2023/12/06 13:03:46;;;;;;;6.63;4.20;;;4.30;99.90;;;;;;5051655;28;20439;-88
2023/12/06 13:06:21;;;;;;;7.50;4.68;;;4.30;99.90;;;;;;5051869;28;20044;-89
2023/12/06 13:08:46;;;;;;;8.27;3.65;;;4.30;99.90;;;;;;5051611;28;20053;-88
2023/12/06 13:11:19;;;;;;;6.85;3.97;;;4.30;99.90;;;;;;5051738;28;20052;-88
2023/12/06 13:13:54;;;;;;;9.90;5.22;;;4.40;99.90;;;;;;5051844;28;20052;-88
2023/12/06 13:16:21;;;;;;;7.15;4.00;;;4.30;99.90;;;;;;5051761;28;20547;-88
2023/12/06 13:18:47;;;;;;;8.27;4.57;;;4.30;99.90;;;;;;5051708;28;20124;-88
2023/12/06 13:21:20;;;;;;;9.50;4.60;;;4.20;99.90;;;;;;5052066;28;20087;-88
2023/12/06 13:23:55;;;;;;;7.28;4.55;;;4.20;99.90;;;;;;5051917;28;20052;-88
2023/12/06 13:26:24;;;;;;;8.30;4.55;;;4.20;99.90;;;;;;5052050;28;20119;-88
2023/12/06 13:29:08;;;;;;;8.25;4.78;;;4.30;99.90;;;;;;5051687;28;20186;-88
2023/12/06 13:31:46;;;;;;;10.20;4.70;;;4.30;99.90;;;;;;5051981;28;20052;-88
2023/12/06 13:34:26;;;;;;;10.75;5.10;;;4.30;99.90;;;;;;5052981;28;20037;-88
2023/12/06 13:36:53;;;;;;;10.02;5.18;;;4.30;99.90;;;;;;5052113;28;20052;-88
2023/12/06 13:39:18;;;;;;;7.75;4.97;;;4.20;99.90;;;;;;5051830;28;20041;-88
2023/12/06 13:41:54;;;;;;;9.32;5.28;;;4.20;99.90;;;;;;5052817;28;20125;-88
2023/12/06 13:44:23;;;;;;;8.30;4.78;;;4.20;99.90;;;;;;5049058;28;20049;-88
2023/12/06 13:47:04;;;;;;;9.32;5.18;;;4.20;99.90;;;;;;5055041;28;20052;-88
2023/12/06 13:49:48;;;;;;;9.02;5.13;;;4.30;99.90;;;;;;5055290;28;20048;-86
2023/12/06 13:52:22;;;;;;;8.82;4.78;;;4.20;99.90;;;;;;5055525;28;20053;-90
2023/12/06 13:54:50;;;;;;;8.82;4.60;;;4.20;99.90;;;;;;5055266;28;20488;-88
2023/12/06 13:57:16;;;;;;;8.75;4.47;;;4.20;99.90;;;;;;5055230;28;20539;-89
2023/12/06 13:59:41;;;;;;;8.60;4.05;;;4.20;99.90;;;;;;5055176;28;20080;-91
2023/12/06 14:02:27;;;;;;;7.35;4.47;;;4.20;99.90;;;;;;5055416;28;20091;-90
2023/12/06 14:05:05;;;;;;;8.15;3.92;;;4.20;99.90;;;;;;5054987;28;20056;-90
2023/12/06 14:07:37;;;;;;;8.55;4.45;;;4.10;99.90;;;;;;5055369;28;20041;-86
2023/12/06 14:10:04;;;;;;;8.77;4.95;;;4.20;99.90;;;;;;5054943;28;20434;-89
2023/12/06 14:12:30;;;;;;;6.47;3.65;;;4.20;99.90;;;;;;5055047;28;20049;-89
2023/12/06 14:14:59;;;;;;;7.22;3.55;;;4.20;99.90;;;;;;5054947;28;20045;-90
2023/12/06 14:17:28;;;;;;;8.00;3.90;;;4.30;99.90;;;;;;5054951;28;20041;-86
2023/12/06 14:19:57;;;;;;;7.63;3.97;;;4.30;99.90;;;;;;5054839;28;20071;-89
2023/12/06 14:22:26;;;;;;;9.02;5.10;;;4.30;99.90;;;;;;5054621;28;20049;-89
2023/12/06 14:24:58;;;;;;;10.07;5.43;;;4.30;99.90;;;;;;5054779;28;20060;-90
2023/12/06 14:27:26;;;;;;;8.25;5.43;;;4.20;99.90;;;;;;5055872;28;20044;-89
2023/12/06 14:30:05;;;;;;;9.23;5.32;;;4.20;99.90;;;;;;5054481;28;20044;-88
2023/12/06 14:32:37;;;;;;;8.82;6.18;;;4.20;99.90;;;;;;5054747;28;20043;-87
2023/12/06 14:35:21;;;;;;;13.75;6.75;;;4.10;99.90;;;;;;5054565;28;20052;-87
2023/12/06 14:37:53;;;;;;;12.45;5.68;;;4.10;99.90;;;;;;5054399;28;20040;-87
2023/12/06 14:40:56;;;;;;;10.43;5.85;;;4.20;99.90;;;;;;5078742;22;20491;-89
2023/12/06 14:43:22;;;;;;;11.88;6.45;;;4.20;99.90;;;;;;5054014;28;20055;-87
2023/12/06 14:46:00;;;;;;;8.00;5.97;;;4.20;99.90;;;;;;5054843;28;20045;-89